Time;durP1;ratioP1;P1;durP2;ratioP2;P2;SDS_P1;SDS_P2;PMS_P1;PMS_P2;Temp;Humidity;BMP_temperature;BMP_pressure;BME280_temperature;BME280_humidity;BME280_pressure;Samples;Min_cycle;Max_cycle;Signal;HPM_P1;HPM_P2
2023/01/24 00:02:04;;;;;;;11.57;8.00;;;9.70;1.00;;;;;;5075692;28;20025;-57
2023/01/24 00:04:29;;;;;;;13.57;9.57;;;9.70;1.00;;;;;;5075948;28;20017;-55
2023/01/24 00:06:55;;;;;;;10.37;8.27;;;9.60;1.00;;;;;;5075440;28;20059;-55
2023/01/24 00:09:20;;;;;;;11.43;8.20;;;9.70;1.00;;;;;;5075626;28;20047;-57
2023/01/24 00:11:46;;;;;;;9.73;7.10;;;9.60;1.00;;;;;;5075543;28;20071;-56
2023/01/24 00:14:11;;;;;;;12.53;7.00;;;9.60;1.00;;;;;;5075414;28;20036;-56
2023/01/24 00:16:37;;;;;;;10.33;7.37;;;9.70;1.00;;;;;;5074037;28;20488;-57
2023/01/24 00:19:03;;;;;;;10.03;7.33;;;9.70;1.00;;;;;;5074034;28;20029;-56
2023/01/24 00:21:28;;;;;;;11.43;7.23;;;9.70;1.00;;;;;;5075150;28;20032;-57
2023/01/24 00:23:55;;;;;;;8.33;6.97;;;9.70;1.00;;;;;;5075389;28;20020;-54
2023/01/24 00:26:22;;;;;;;7.73;6.93;;;9.70;1.00;;;;;;5073747;28;20037;-56
2023/01/24 00:28:49;;;;;;;8.70;7.13;;;9.80;1.00;;;;;;5075029;28;20040;-57
2023/01/24 00:31:15;;;;;;;9.53;6.60;;;9.70;1.00;;;;;;5075131;28;20059;-54
2023/01/24 00:33:41;;;;;;;9.03;6.17;;;9.70;1.00;;;;;;5075153;28;20455;-57
2023/01/24 00:36:07;;;;;;;7.67;5.47;;;9.60;1.00;;;;;;5075095;28;20150;-56
2023/01/24 00:38:32;;;;;;;6.40;5.43;;;9.60;1.00;;;;;;5075271;28;20029;-57
2023/01/24 00:40:59;;;;;;;7.47;5.27;;;9.60;1.00;;;;;;5075323;28;20387;-54
2023/01/24 00:43:26;;;;;;;6.43;5.53;;;9.60;1.00;;;;;;5067291;28;20024;-57
2023/01/24 00:45:52;;;;;;;7.10;5.43;;;9.50;1.00;;;;;;5075110;28;20032;-57
2023/01/24 00:48:17;;;;;;;5.47;4.87;;;9.60;1.00;;;;;;5073348;28;20028;-56
2023/01/24 00:50:43;;;;;;;6.50;5.77;;;9.60;1.00;;;;;;5074875;28;20032;-56
2023/01/24 00:53:09;;;;;;;7.70;6.03;;;9.60;1.00;;;;;;5075118;28;20031;-57
2023/01/24 00:55:39;;;;;;;6.60;5.93;;;9.60;1.00;;;;;;5074747;28;20099;-56
2023/01/24 00:58:05;;;;;;;9.53;5.90;;;9.60;1.00;;;;;;5074960;28;20090;-56
2023/01/24 01:00:31;;;;;;;7.20;5.73;;;9.60;1.00;;;;;;5074813;28;20025;-56
2023/01/24 01:02:56;;;;;;;7.07;5.27;;;9.60;1.00;;;;;;5073162;28;20033;-57
2023/01/24 01:05:22;;;;;;;10.93;6.17;;;9.50;1.00;;;;;;5068338;28;20045;-57
2023/01/24 01:07:48;;;;;;;6.73;5.60;;;9.60;1.00;;;;;;5073913;28;20496;-55
2023/01/24 01:10:14;;;;;;;7.60;6.40;;;9.60;1.00;;;;;;5074494;28;20055;-57
2023/01/24 01:12:39;;;;;;;9.37;5.80;;;9.60;1.00;;;;;;5073068;28;20196;-55
2023/01/24 01:15:05;;;;;;;8.37;6.00;;;9.70;1.00;;;;;;5074468;28;20029;-57
2023/01/24 01:17:31;;;;;;;6.17;5.17;;;9.70;1.00;;;;;;5074300;28;20079;-57
2023/01/24 01:19:58;;;;;;;7.03;5.77;;;9.80;1.00;;;;;;5074386;28;20482;-57
2023/01/24 01:22:24;;;;;;;8.47;5.40;;;9.70;1.00;;;;;;5074443;28;20474;-56
2023/01/24 01:24:49;;;;;;;6.80;5.50;;;9.60;1.00;;;;;;5074079;28;20032;-56
2023/01/24 01:27:15;;;;;;;7.37;5.27;;;9.60;1.00;;;;;;5074022;28;20033;-57
2023/01/24 01:29:40;;;;;;;7.73;5.90;;;9.60;1.00;;;;;;5074060;28;20025;-56
2023/01/24 01:32:06;;;;;;;6.50;5.23;;;9.80;1.00;;;;;;5072650;28;20029;-56
2023/01/24 01:34:32;;;;;;;8.20;6.20;;;9.80;1.00;;;;;;5072632;28;20047;-57
2023/01/24 01:36:57;;;;;;;6.37;5.13;;;9.80;1.00;;;;;;5072718;28;20021;-57
2023/01/24 01:39:23;;;;;;;7.07;5.20;;;9.80;1.00;;;;;;5074319;28;20057;-56
2023/01/24 01:41:49;;;;;;;5.93;4.90;;;9.70;1.00;;;;;;5073717;28;20470;-57
2023/01/24 01:47:24;;;;;;;6.60;5.17;;;9.80;1.00;;;;;;5073565;28;20397;-57
2023/01/24 01:50:21;;;;;;;6.17;4.97;;;9.80;1.00;;;;;;5073519;28;20040;-57
2023/01/24 01:52:47;;;;;;;6.17;4.70;;;9.60;1.00;;;;;;5053822;28;20063;-57
2023/01/24 01:55:16;;;;;;;6.10;4.87;;;9.60;1.00;;;;;;5072182;28;20455;-57
2023/01/24 01:57:43;;;;;;;6.50;4.83;;;9.60;1.00;;;;;;5059505;28;20462;-54
2023/01/24 02:00:13;;;;;;;6.67;5.03;;;9.60;1.00;;;;;;5069285;28;20089;-56
2023/01/24 02:02:42;;;;;;;5.70;4.30;;;9.70;1.00;;;;;;5073268;28;20032;-56
2023/01/24 02:05:11;;;;;;;5.07;4.57;;;9.70;1.00;;;;;;5073131;28;20513;-56
2023/01/24 02:07:43;;;;;;;6.30;4.67;;;9.70;1.00;;;;;;5073231;28;20402;-55
2023/01/24 02:10:09;;;;;;;6.37;4.57;;;9.70;1.00;;;;;;5072438;28;20074;-56
2023/01/24 02:12:41;;;;;;;5.07;4.53;;;9.70;1.00;;;;;;5071130;28;20064;-57
2023/01/24 02:18:05;;;;;;;5.97;4.30;;;9.70;1.00;;;;;;5072463;28;20035;-57
2023/01/24 02:20:42;;;;;;;6.63;4.10;;;9.70;1.00;;;;;;5072614;28;20032;-56
2023/01/24 02:23:13;;;;;;;4.23;3.83;;;9.80;1.00;;;;;;5072596;28;20059;-57
2023/01/24 02:25:52;;;;;;;5.97;3.90;;;9.80;1.00;;;;;;5072552;28;20434;-56
2023/01/24 02:28:18;;;;;;;4.73;3.73;;;9.80;1.00;;;;;;5058992;28;20036;-56
2023/01/24 02:30:44;;;;;;;4.00;3.60;;;9.80;1.00;;;;;;5071760;28;20090;-57
2023/01/24 02:33:15;;;;;;;4.93;4.33;;;9.90;1.00;;;;;;5071575;28;20024;-56
2023/01/24 02:35:41;;;;;;;7.23;3.63;;;9.80;1.00;;;;;;5072972;28;20035;-57
2023/01/24 02:38:22;;;;;;;3.93;3.47;;;9.70;1.00;;;;;;5072678;28;20104;-57
2023/01/24 02:40:52;;;;;;;5.80;3.73;;;9.80;1.00;;;;;;5072837;28;20025;-56
2023/01/24 02:43:21;;;;;;;5.17;3.53;;;9.70;1.00;;;;;;5072765;28;20100;-57
2023/01/24 02:45:47;;;;;;;4.47;3.70;;;9.70;1.00;;;;;;5071778;28;20069;-56
2023/01/24 02:48:12;;;;;;;3.97;3.57;;;9.70;1.00;;;;;;5072560;28;20085;-53
2023/01/24 02:53:31;;;;;;;4.33;3.93;;;9.60;1.00;;;;;;5073182;28;20039;-56
2023/01/24 02:58:47;;;;;;;3.73;3.07;;;9.60;1.00;;;;;;5072733;28;20085;-56
2023/01/24 03:01:14;;;;;;;4.73;3.80;;;9.70;1.00;;;;;;5072597;28;20012;-57
2023/01/24 03:03:42;;;;;;;3.37;3.07;;;9.70;1.00;;;;;;5072860;28;20044;-57
2023/01/24 03:06:08;;;;;;;3.77;3.27;;;9.60;1.00;;;;;;5070750;28;20041;-56
2023/01/24 03:08:35;;;;;;;4.03;3.57;;;9.60;1.00;;;;;;5070996;28;20135;-55
2023/01/24 03:11:01;;;;;;;3.70;3.33;;;9.70;1.00;;;;;;5071666;28;20502;-55
2023/01/24 03:35:21;;;;;;;2.63;2.43;;;9.70;1.00;;;;;;5072599;28;20071;-55
2023/01/24 03:40:31;;;;;;;3.60;2.77;;;9.70;1.00;;;;;;5060997;28;20031;-56
2023/01/24 03:42:58;;;;;;;3.00;2.70;;;9.70;1.00;;;;;;5071972;28;20099;-57
2023/01/24 03:45:26;;;;;;;3.83;2.90;;;9.70;1.00;;;;;;5072216;28;20024;-55
2023/01/24 03:48:04;;;;;;;3.07;2.70;;;9.60;1.00;;;;;;5071796;28;20128;-55
2023/01/24 03:53:25;;;;;;;4.70;3.10;;;9.70;1.00;;;;;;5070193;28;20034;-56
2023/01/24 03:55:53;;;;;;;3.13;2.63;;;9.70;1.00;;;;;;5071941;28;20457;-57
2023/01/24 03:58:19;;;;;;;2.73;2.53;;;9.70;1.00;;;;;;5071586;28;20073;-57
2023/01/24 04:00:44;;;;;;;3.40;2.90;;;9.60;1.00;;;;;;5071850;28;20420;-56
2023/01/24 04:03:10;;;;;;;3.63;3.03;;;9.70;1.00;;;;;;5072221;28;20024;-57
2023/01/24 04:05:36;;;;;;;3.90;3.07;;;9.80;1.00;;;;;;5071866;28;20072;-58
2023/01/24 04:08:02;;;;;;;4.00;2.73;;;9.80;1.00;;;;;;5070270;28;20498;-55
2023/01/24 04:10:28;;;;;;;3.50;3.20;;;9.80;1.00;;;;;;5070329;28;20493;-57
2023/01/24 04:12:54;;;;;;;4.37;3.20;;;9.80;1.00;;;;;;5071649;28;20033;-57
2023/01/24 04:15:24;;;;;;;5.00;3.23;;;9.80;1.00;;;;;;5071715;28;20095;-57
2023/01/24 04:17:50;;;;;;;3.55;3.10;;;9.90;1.00;;;;;;5071603;28;20048;-57
2023/01/24 04:20:16;;;;;;;5.07;2.90;;;9.90;1.00;;;;;;5072276;28;20021;-56
2023/01/24 04:22:42;;;;;;;4.70;3.72;;;9.90;1.00;;;;;;5072327;28;20466;-57
2023/01/24 04:25:09;;;;;;;3.97;3.40;;;9.90;1.00;;;;;;5075360;28;20067;-57
2023/01/24 04:27:35;;;;;;;3.50;3.20;;;9.90;1.00;;;;;;5075127;28;20120;-56
2023/01/24 04:30:02;;;;;;;4.37;3.60;;;9.90;1.00;;;;;;5075215;28;20091;-57
2023/01/24 04:32:28;;;;;;;4.10;3.33;;;9.90;1.00;;;;;;5075164;28;20539;-56
2023/01/24 04:34:57;;;;;;;4.83;3.30;;;9.90;1.00;;;;;;5075192;28;20027;-57
2023/01/24 04:37:22;;;;;;;5.80;4.03;;;9.90;1.00;;;;;;5075340;28;20020;-57
2023/01/24 04:39:48;;;;;;;6.82;3.58;;;9.90;1.00;;;;;;5075394;28;20021;-56
2023/01/24 04:42:13;;;;;;;5.63;4.07;;;9.90;1.00;;;;;;5075038;28;20370;-54
2023/01/24 04:44:39;;;;;;;6.60;4.30;;;9.80;1.00;;;;;;5075364;28;20020;-57
2023/01/24 04:47:05;;;;;;;5.63;4.43;;;9.90;1.00;;;;;;5075043;28;20474;-57
2023/01/24 04:49:30;;;;;;;4.90;4.40;;;9.90;1.00;;;;;;5075145;28;20025;-58
2023/01/24 04:51:56;;;;;;;5.75;5.10;;;9.90;1.00;;;;;;5074819;28;20490;-55
2023/01/24 04:54:21;;;;;;;5.72;5.13;;;9.90;1.00;;;;;;5074889;28;20057;-55
2023/01/24 04:56:47;;;;;;;6.93;5.47;;;9.80;1.00;;;;;;5074813;28;20025;-57
2023/01/24 04:59:13;;;;;;;7.95;6.05;;;9.80;1.00;;;;;;5074639;28;20020;-56
2023/01/24 05:01:39;;;;;;;7.47;5.78;;;9.80;1.00;;;;;;5074732;28;20024;-55
2023/01/24 05:04:05;;;;;;;8.90;6.93;;;9.80;1.00;;;;;;5074972;28;20347;-57
2023/01/24 05:06:32;;;;;;;8.17;6.53;;;9.80;1.00;;;;;;5074494;28;20406;-57
2023/01/24 05:08:58;;;;;;;10.23;6.83;;;9.80;1.00;;;;;;5074674;28;20051;-57
2023/01/24 05:11:24;;;;;;;7.40;6.60;;;9.80;1.00;;;;;;5073427;28;20021;-58
2023/01/24 05:13:50;;;;;;;10.27;6.90;;;9.90;1.00;;;;;;5074820;28;20107;-56
2023/01/24 05:16:16;;;;;;;9.43;6.93;;;9.80;1.00;;;;;;5074494;28;20021;-55
2023/01/24 05:18:42;;;;;;;9.93;7.47;;;9.90;1.00;;;;;;5074622;28;20040;-57
2023/01/24 05:21:16;;;;;;;9.53;7.27;;;9.90;1.00;;;;;;5074362;28;20024;-57
2023/01/24 05:23:42;;;;;;;9.80;8.03;;;9.90;1.00;;;;;;5074629;28;20040;-56
2023/01/24 05:26:08;;;;;;;10.63;8.30;;;9.90;1.00;;;;;;5074203;28;20025;-55
2023/01/24 05:28:35;;;;;;;11.93;8.43;;;9.90;1.00;;;;;;5074186;28;20033;-56
2023/01/24 05:31:03;;;;;;;11.97;7.90;;;9.90;1.00;;;;;;5072920;28;20063;-56
2023/01/24 05:33:28;;;;;;;11.07;8.40;;;9.90;1.00;;;;;;5074101;28;20054;-58
2023/01/24 05:36:02;;;;;;;10.70;8.57;;;9.80;1.00;;;;;;5073443;28;20090;-57
2023/01/24 05:38:27;;;;;;;12.00;8.80;;;9.80;1.00;;;;;;5074305;28;20114;-56
2023/01/24 05:40:53;;;;;;;10.10;8.57;;;9.80;1.00;;;;;;5074009;28;20473;-56
2023/01/24 05:43:19;;;;;;;12.83;9.23;;;9.90;1.00;;;;;;5073913;28;20027;-57
2023/01/24 05:45:44;;;;;;;11.67;9.10;;;9.90;1.00;;;;;;5074224;28;20047;-57
2023/01/24 05:48:10;;;;;;;12.77;9.10;;;9.90;1.00;;;;;;5073918;28;20509;-55
2023/01/24 05:50:36;;;;;;;14.57;9.07;;;9.90;1.00;;;;;;5073836;28;20030;-57
2023/01/24 05:53:03;;;;;;;10.90;9.47;;;9.90;1.00;;;;;;5073707;28;20035;-56
2023/01/24 05:55:28;;;;;;;13.40;9.90;;;9.90;1.00;;;;;;5073520;28;20013;-56
2023/01/24 05:57:54;;;;;;;13.93;9.80;;;9.90;1.00;;;;;;5073566;28;20055;-57
2023/01/24 06:00:20;;;;;;;11.43;10.10;;;10.00;1.00;;;;;;5073521;28;20071;-55
2023/01/24 06:02:46;;;;;;;13.63;10.00;;;10.00;1.00;;;;;;5073422;28;20040;-57
2023/01/24 06:05:11;;;;;;;11.77;9.00;;;9.90;1.00;;;;;;5073437;28;20106;-57
2023/01/24 06:07:37;;;;;;;13.97;9.80;;;10.00;1.00;;;;;;5073319;28;20416;-57
2023/01/24 06:10:03;;;;;;;12.37;9.73;;;10.00;1.00;;;;;;5073454;28;20070;-57
2023/01/24 06:12:29;;;;;;;13.60;9.70;;;10.00;1.00;;;;;;5073647;28;20119;-57
2023/01/24 06:14:54;;;;;;;13.25;9.30;;;10.00;1.00;;;;;;5071985;28;20021;-55
2023/01/24 06:17:20;;;;;;;13.37;9.80;;;10.00;1.00;;;;;;5073506;28;20028;-57
2023/01/24 06:19:46;;;;;;;10.57;8.80;;;10.00;1.00;;;;;;5073132;28;20174;-56
2023/01/24 06:22:30;;;;;;;15.13;9.53;;;9.90;1.00;;;;;;5073226;28;20032;-57
2023/01/24 06:24:55;;;;;;;13.53;9.43;;;10.00;1.00;;;;;;5059393;28;20031;-58
2023/01/24 06:27:21;;;;;;;10.87;8.53;;;10.00;1.00;;;;;;5073108;28;20028;-56
2023/01/24 06:29:47;;;;;;;11.57;8.30;;;10.00;1.00;;;;;;5072944;28;20078;-58
2023/01/24 06:32:34;;;;;;;10.70;8.15;;;10.00;1.00;;;;;;5073269;28;20078;-57
2023/01/24 06:35:30;;;;;;;13.15;7.93;;;10.00;1.00;;;;;;5066790;28;20351;-56
2023/01/24 06:37:57;;;;;;;6.73;4.83;;;10.00;1.00;;;;;;5072985;28;20050;-58
2023/01/24 06:40:24;;;;;;;9.40;7.23;;;10.00;1.00;;;;;;5073006;28;20504;-57
2023/01/24 06:42:51;;;;;;;9.17;7.30;;;10.00;1.00;;;;;;5073018;28;20035;-57
2023/01/24 06:45:18;;;;;;;10.00;7.37;;;10.10;1.00;;;;;;5072484;28;20471;-57
2023/01/24 06:47:43;;;;;;;10.43;7.40;;;10.10;1.00;;;;;;5073080;28;20044;-56
2023/01/24 06:50:18;;;;;;;12.52;7.75;;;10.10;1.00;;;;;;5071521;28;20367;-58
2023/01/24 06:52:44;;;;;;;;;;;10.00;1.00;;;;;;5072683;28;20356;-58
2023/01/24 06:55:10;;;;;;;11.57;7.53;;;10.00;1.00;;;;;;5072736;28;19904;-57
2023/01/24 06:57:35;;;;;;;12.35;8.00;;;10.00;1.00;;;;;;5072636;28;20025;-58
2023/01/24 07:00:03;;;;;;;11.33;8.03;;;10.00;1.00;;;;;;5072613;28;20067;-56
2023/01/24 07:02:28;;;;;;;13.50;8.20;;;9.90;1.00;;;;;;5072540;28;20476;-58
2023/01/24 07:04:54;;;;;;;12.43;8.70;;;10.00;1.00;;;;;;5071105;28;20048;-58
2023/01/24 07:07:19;;;;;;;11.37;8.10;;;10.00;1.00;;;;;;5071087;28;20090;-55
2023/01/24 07:09:45;;;;;;;12.70;7.78;;;10.00;1.00;;;;;;5072514;28;20056;-55
2023/01/24 07:12:10;;;;;;;10.80;8.03;;;10.00;1.00;;;;;;5072816;28;20021;-57
2023/01/24 07:14:36;;;;;;;9.90;8.23;;;10.00;1.00;;;;;;5072349;28;20531;-57
2023/01/24 07:17:02;;;;;;;15.63;8.77;;;9.90;1.00;;;;;;5072522;28;20386;-58
2023/01/24 07:19:28;;;;;;;12.27;8.23;;;10.00;1.00;;;;;;5072455;28;20067;-56
2023/01/24 07:21:56;;;;;;;14.48;7.93;;;10.00;1.00;;;;;;5072832;28;20382;-58
2023/01/24 07:24:27;;;;;;;12.43;8.70;;;9.90;1.00;;;;;;5072247;28;20097;-58
2023/01/24 07:26:53;;;;;;;13.25;7.97;;;9.90;1.00;;;;;;5072315;28;20028;-57
2023/01/24 07:29:20;;;;;;;13.47;8.10;;;10.00;1.00;;;;;;5072571;28;20033;-57
2023/01/24 07:31:47;;;;;;;12.32;8.52;;;9.80;1.00;;;;;;5072209;28;20383;-58
2023/01/24 07:34:15;;;;;;;14.30;8.03;;;9.90;1.00;;;;;;5072404;28;20519;-58
2023/01/24 07:36:47;;;;;;;13.80;8.63;;;10.00;1.00;;;;;;5072082;28;20086;-58
2023/01/24 07:39:14;;;;;;;12.50;7.93;;;10.10;1.00;;;;;;5070950;28;20024;-57
2023/01/24 07:41:42;;;;;;;13.57;8.20;;;10.10;1.00;;;;;;5072004;28;20025;-57
2023/01/24 07:44:08;;;;;;;8.52;7.63;;;10.10;1.00;;;;;;5072308;28;20355;-57
2023/01/24 07:46:34;;;;;;;11.30;8.10;;;10.10;1.00;;;;;;5072435;28;20021;-55
2023/01/24 07:49:00;;;;;;;9.60;7.20;;;10.10;1.00;;;;;;5072382;28;20037;-57
2023/01/24 07:51:26;;;;;;;8.70;7.13;;;10.20;1.00;;;;;;5072091;28;20021;-56
2023/01/24 07:53:52;;;;;;;12.93;7.03;;;10.20;1.00;;;;;;5070806;28;20028;-57
2023/01/24 07:56:17;;;;;;;10.10;7.10;;;10.30;1.00;;;;;;5072020;28;20017;-56
2023/01/24 07:58:43;;;;;;;11.00;7.88;;;10.30;1.00;;;;;;5074270;28;20592;-58
2023/01/24 08:01:15;;;;;;;10.45;7.35;;;10.30;1.00;;;;;;5076203;28;20025;-61
2023/01/24 08:03:40;;;;;;;10.02;7.05;;;10.30;1.00;;;;;;5076448;28;20033;-59
2023/01/24 08:06:06;;;;;;;12.63;6.67;;;10.40;1.00;;;;;;5075760;28;20517;-59
2023/01/24 08:08:32;;;;;;;11.52;7.25;;;10.40;1.00;;;;;;5074497;28;20131;-57
2023/01/24 08:10:57;;;;;;;10.95;6.90;;;10.40;1.00;;;;;;5075934;28;20020;-56
2023/01/24 08:13:23;;;;;;;8.30;7.20;;;10.50;1.00;;;;;;5076121;28;20406;-60
2023/01/24 08:15:48;;;;;;;9.13;6.57;;;10.40;1.00;;;;;;5075926;28;20027;-60
2023/01/24 08:18:14;;;;;;;12.40;7.18;;;10.30;1.00;;;;;;5074418;28;20024;-61
2023/01/24 08:20:39;;;;;;;12.47;7.27;;;10.40;1.00;;;;;;5075869;28;20028;-60
2023/01/24 08:23:05;;;;;;;10.57;6.70;;;10.40;1.00;;;;;;5075803;28;20492;-61
2023/01/24 08:25:31;;;;;;;10.57;7.18;;;10.50;1.00;;;;;;5075378;28;20033;-62
2023/01/24 08:27:57;;;;;;;8.20;5.70;;;10.50;1.00;;;;;;5075291;28;20044;-60
2023/01/24 08:30:23;;;;;;;10.13;6.68;;;10.50;1.00;;;;;;5075623;28;20112;-60
2023/01/24 08:32:48;;;;;;;10.63;6.10;;;10.50;1.00;;;;;;5075223;28;20033;-61
2023/01/24 08:35:14;;;;;;;10.20;6.25;;;10.50;1.00;;;;;;5075338;28;20025;-61
2023/01/24 08:37:40;;;;;;;7.47;5.68;;;10.50;1.00;;;;;;5072463;28;20029;-60
2023/01/24 08:40:06;;;;;;;5.28;4.78;;;10.50;1.00;;;;;;5065372;28;20043;-60
2023/01/24 08:42:32;;;;;;;6.75;5.07;;;10.40;1.00;;;;;;5069433;28;20033;-60
2023/01/24 08:45:07;;;;;;;5.55;4.82;;;10.40;1.00;;;;;;5075126;28;20036;-60
2023/01/24 08:47:33;;;;;;;7.15;4.80;;;10.40;1.00;;;;;;5068727;28;20037;-59
2023/01/24 08:49:59;;;;;;;5.57;4.55;;;10.30;1.00;;;;;;5070227;28;20360;-61
2023/01/24 08:52:24;;;;;;;6.63;4.70;;;10.30;1.00;;;;;;5074962;28;20531;-61
2023/01/24 08:54:50;;;;;;;9.25;5.60;;;10.40;1.00;;;;;;5073463;28;20021;-59
2023/01/24 08:57:15;;;;;;;6.78;4.97;;;10.40;1.00;;;;;;5073475;28;20540;-58
2023/01/24 08:59:41;;;;;;;7.85;5.55;;;10.40;1.00;;;;;;5074684;28;20119;-62
2023/01/24 09:02:12;;;;;;;6.53;5.85;;;10.30;1.00;;;;;;5074802;28;20493;-63
2023/01/24 09:04:38;;;;;;;6.65;5.63;;;10.30;1.00;;;;;;5075234;28;20137;-62
2023/01/24 09:07:03;;;;;;;9.00;6.82;;;10.40;1.00;;;;;;5074975;28;20028;-60
2023/01/24 09:09:29;;;;;;;8.35;6.03;;;10.50;1.00;;;;;;5073683;28;20041;-61
2023/01/24 09:11:55;;;;;;;7.40;6.53;;;10.40;1.00;;;;;;5074892;28;20025;-60
2023/01/24 09:14:20;;;;;;;10.77;6.50;;;10.50;1.00;;;;;;5074479;28;20048;-58
2023/01/24 09:16:46;;;;;;;10.20;6.78;;;10.40;1.00;;;;;;5074475;28;20074;-54
2023/01/24 09:19:12;;;;;;;8.55;6.35;;;10.50;1.00;;;;;;5074930;28;20032;-69
2023/01/24 09:21:38;;;;;;;11.70;7.22;;;10.50;1.00;;;;;;5074565;28;20028;-58
2023/01/24 09:24:04;;;;;;;10.00;7.55;;;10.50;1.00;;;;;;5074356;28;20031;-53
2023/01/24 09:26:29;;;;;;;9.90;8.70;;;10.50;1.00;;;;;;5074159;28;20028;-63
2023/01/24 09:28:55;;;;;;;12.55;8.18;;;10.60;1.00;;;;;;5074352;28;20040;-63
2023/01/24 09:31:21;;;;;;;11.18;8.38;;;10.60;1.00;;;;;;5074413;28;20025;-60
2023/01/24 09:33:46;;;;;;;10.80;7.40;;;10.60;1.00;;;;;;5074487;28;20037;-62
2023/01/24 09:36:12;;;;;;;12.10;7.47;;;10.70;1.00;;;;;;5072872;28;20024;-62
2023/01/24 09:38:38;;;;;;;10.27;6.40;;;10.60;1.00;;;;;;5075009;28;20029;-60
2023/01/24 09:41:32;;;;;;;7.85;6.50;;;10.60;1.00;;;;;;5073299;28;20124;-61
2023/01/24 09:43:59;;;;;;;8.77;6.20;;;10.60;1.00;;;;;;5072837;28;20031;-63
2023/01/24 09:46:48;;;;;;;10.73;6.82;;;10.70;1.00;;;;;;5073969;28;20782;-62
2023/01/24 09:49:22;;;;;;;12.15;6.93;;;10.60;1.00;;;;;;5074040;28;20032;-59
2023/01/24 09:51:53;;;;;;;11.38;6.32;;;10.70;1.00;;;;;;5074127;28;20020;-60
2023/01/24 09:54:37;;;;;;;9.55;6.80;;;10.90;1.00;;;;;;5073976;28;20109;-59
2023/01/24 09:57:39;;;;;;;12.43;6.55;;;11.00;1.00;;;;;;5073988;28;20063;-59
2023/01/24 10:00:17;;;;;;;8.57;6.35;;;11.00;1.00;;;;;;5051022;28;20029;-59
2023/01/24 10:02:43;;;;;;;10.52;6.82;;;11.00;1.00;;;;;;5070214;28;20466;-59
2023/01/24 10:05:16;;;;;;;10.10;7.40;;;11.20;1.00;;;;;;5072424;28;20052;-60
2023/01/24 10:07:44;;;;;;;11.80;7.18;;;11.30;1.00;;;;;;5072023;28;20111;-60
2023/01/24 10:10:25;;;;;;;10.73;7.18;;;11.40;1.00;;;;;;5072465;28;20032;-60
2023/01/24 10:13:08;;;;;;;11.40;7.60;;;11.50;1.00;;;;;;5073643;28;20378;-60
2023/01/24 10:16:12;;;;;;;12.77;7.63;;;11.60;1.00;;;;;;5073063;28;20033;-60
2023/01/24 10:19:05;;;;;;;12.35;7.63;;;11.70;1.00;;;;;;5041438;28;20025;-60
2023/01/24 10:21:56;;;;;;;9.98;7.57;;;11.70;1.00;;;;;;5072682;28;20100;-59
2023/01/24 10:24:28;;;;;;;10.80;8.88;;;11.60;1.00;;;;;;5073262;28;20369;-60
2023/01/24 10:26:53;;;;;;;12.75;9.27;;;11.80;1.00;;;;;;5073085;28;20056;-60
2023/01/24 10:29:25;;;;;;;13.07;8.93;;;11.90;1.00;;;;;;5073078;28;20155;-59
2023/01/24 10:31:58;;;;;;;11.10;8.95;;;11.80;1.00;;;;;;5073019;28;20501;-60
2023/01/24 10:34:41;;;;;;;11.57;9.40;;;12.00;1.00;;;;;;5073491;28;20028;-60
2023/01/24 10:37:20;;;;;;;15.27;9.25;;;12.00;1.00;;;;;;5058851;28;20504;-60
2023/01/24 10:39:46;;;;;;;12.68;8.90;;;12.10;1.00;;;;;;5073063;28;20033;-60
2023/01/24 10:42:26;;;;;;;10.43;7.93;;;12.10;1.00;;;;;;5073185;28;20555;-59
2023/01/24 10:44:57;;;;;;;16.92;10.63;;;12.10;1.00;;;;;;5072919;28;20021;-59
2023/01/24 10:48:02;;;;;;;14.55;9.60;;;11.90;1.00;;;;;;5072857;28;20065;-62
2023/01/24 10:50:40;;;;;;;15.00;8.77;;;11.90;1.00;;;;;;5068017;28;20043;-63
2023/01/24 10:53:24;;;;;;;10.52;8.50;;;11.80;1.00;;;;;;5073212;28;20497;-65
2023/01/24 10:55:56;;;;;;;8.15;7.18;;;11.60;1.00;;;;;;5073056;28;20473;-63
2023/01/24 10:58:43;;;;;;;11.15;7.95;;;11.70;1.00;;;;;;5072691;28;20024;-61
2023/01/24 11:01:18;;;;;;;10.85;7.45;;;11.80;1.00;;;;;;5072316;28;20089;-60
2023/01/24 11:03:46;;;;;;;11.43;7.00;;;11.90;1.00;;;;;;5072904;28;20363;-62
2023/01/24 11:06:36;;;;;;;9.57;7.38;;;11.90;1.00;;;;;;5070961;28;20052;-67
2023/01/24 11:09:23;;;;;;;;;;;11.90;1.00;;;;;;5072607;28;20044;-61
2023/01/24 11:11:56;;;;;;;11.50;6.35;;;11.70;1.00;;;;;;5072972;28;19904;-61
2023/01/24 11:14:28;;;;;;;8.65;6.35;;;11.70;1.00;;;;;;5070472;28;20146;-60
2023/01/24 11:16:58;;;;;;;9.48;6.95;;;11.60;1.00;;;;;;5061206;28;20029;-60
2023/01/24 11:19:40;;;;;;;9.52;6.68;;;11.50;1.00;;;;;;5072301;28;20024;-60
2023/01/24 11:22:23;;;;;;;11.05;9.50;;;11.50;1.00;;;;;;5072632;28;20040;-60
2023/01/24 11:24:49;;;;;;;11.43;8.48;;;11.50;1.00;;;;;;5072431;28;20056;-59
2023/01/24 11:27:17;;;;;;;9.45;7.13;;;11.50;1.00;;;;;;5072282;28;20055;-59
2023/01/24 11:29:43;;;;;;;9.30;7.28;;;11.50;1.00;;;;;;5072119;28;20032;-59
2023/01/24 11:32:24;;;;;;;9.30;7.43;;;11.50;1.00;;;;;;5070100;28;20106;-60
2023/01/24 11:35:07;;;;;;;11.98;8.27;;;11.50;1.00;;;;;;5072014;28;20111;-60
2023/01/24 11:38:26;;;;;;;12.45;8.02;;;11.40;1.00;;;;;;5067538;28;20060;-59
2023/01/24 11:41:07;;;;;;;10.60;6.75;;;11.40;1.00;;;;;;5052903;28;20071;-57
2023/01/24 11:44:03;;;;;;;8.73;7.03;;;11.30;1.00;;;;;;5071920;28;20067;-55
2023/01/24 11:46:47;;;;;;;7.07;6.32;;;11.30;1.00;;;;;;5071970;28;20107;-49
2023/01/24 11:49:33;;;;;;;8.23;6.65;;;11.30;1.00;;;;;;5072107;28;20097;-60
2023/01/24 11:52:02;;;;;;;10.68;7.68;;;11.30;1.00;;;;;;5072749;28;20416;-73
2023/01/24 11:54:56;;;;;;;9.05;7.40;;;11.40;1.00;;;;;;5072012;28;20096;-61
2023/01/24 11:58:03;;;;;;;10.23;7.47;;;11.40;1.00;;;;;;5058527;28;20071;-67
2023/01/24 12:01:01;;;;;;;9.85;7.30;;;11.40;1.00;;;;;;5010244;28;20026;-69
2023/01/24 12:04:03;;;;;;;9.52;6.32;;;11.30;1.00;;;;;;5061821;28;20097;-68
2023/01/24 12:06:47;;;;;;;9.93;6.60;;;11.30;1.00;;;;;;5057240;28;20094;-67
2023/01/24 12:09:43;;;;;;;9.20;5.90;;;11.30;1.00;;;;;;5071906;28;20516;-58
2023/01/24 12:12:19;;;;;;;8.68;5.85;;;11.40;1.00;;;;;;5069087;28;20028;-62
2023/01/24 12:15:05;;;;;;;6.18;5.55;;;11.50;1.00;;;;;;5071761;28;20511;-60
2023/01/24 12:17:49;;;;;;;8.20;6.07;;;11.50;1.00;;;;;;5071906;28;20019;-61
2023/01/24 12:20:23;;;;;;;9.97;6.33;;;11.50;1.00;;;;;;5060117;28;20047;-61
2023/01/24 12:22:53;;;;;;;11.75;9.10;;;11.50;1.00;;;;;;5071733;28;20017;-61
2023/01/24 12:25:37;;;;;;;13.85;9.73;;;11.40;1.00;;;;;;5071857;28;20165;-61
2023/01/24 12:28:08;;;;;;;12.68;9.90;;;11.60;1.00;;;;;;5071310;28;20040;-62
2023/01/24 12:30:49;;;;;;;12.05;9.73;;;11.40;1.00;;;;;;5071756;28;20021;-66
2023/01/24 12:33:25;;;;;;;17.23;11.10;;;11.40;1.00;;;;;;5071762;28;20044;-64
2023/01/24 12:35:56;;;;;;;13.88;9.23;;;11.50;1.00;;;;;;5071770;28;20024;-63
2023/01/24 12:38:51;;;;;;;11.45;9.40;;;11.50;1.00;;;;;;5071904;28;20453;-66
2023/01/24 12:41:35;;;;;;;11.82;8.60;;;11.60;1.00;;;;;;5071549;28;20032;-66
2023/01/24 12:44:31;;;;;;;11.20;7.82;;;11.60;1.00;;;;;;5060434;28;20482;-66
2023/01/24 12:47:38;;;;;;;8.95;7.50;;;11.70;1.00;;;;;;5075018;28;20043;-66
2023/01/24 12:50:27;;;;;;;12.63;8.55;;;11.70;1.00;;;;;;5066811;28;20051;-67
2023/01/24 12:53:03;;;;;;;10.70;8.63;;;11.70;1.00;;;;;;5061999;28;20028;-66
2023/01/24 12:55:37;;;;;;;15.35;9.10;;;11.80;1.00;;;;;;5074926;28;20543;-67
2023/01/24 12:58:18;;;;;;;13.30;8.88;;;11.80;1.00;;;;;;5074822;28;20024;-66
2023/01/24 13:01:15;;;;;;;9.00;8.02;;;11.70;1.00;;;;;;5074527;28;20043;-66
2023/01/24 13:04:12;;;;;;;10.38;8.85;;;11.70;1.00;;;;;;5040969;28;20366;-66
2023/01/24 13:07:13;;;;;;;13.93;8.75;;;11.70;1.00;;;;;;5071518;28;20371;-67
2023/01/24 13:09:49;;;;;;;10.88;8.57;;;11.70;1.00;;;;;;5068125;28;20070;-67
2023/01/24 13:12:21;;;;;;;12.70;9.30;;;11.70;1.00;;;;;;5073182;28;20347;-66
2023/01/24 13:14:50;;;;;;;11.95;9.02;;;11.80;1.00;;;;;;5074641;28;20025;-66
2023/01/24 13:17:18;;;;;;;10.95;8.45;;;11.80;1.00;;;;;;5063730;28;20466;-66
2023/01/24 13:20:00;;;;;;;12.05;9.50;;;11.80;1.00;;;;;;5074363;28;20441;-66
2023/01/24 13:23:02;;;;;;;9.50;8.18;;;11.80;1.00;;;;;;5074365;28;20024;-66
2023/01/24 13:25:37;;;;;;;11.70;8.98;;;11.80;1.00;;;;;;5062318;28;20047;-66
2023/01/24 13:28:11;;;;;;;;;;;11.90;1.00;;;;;;5074431;28;20045;-66
2023/01/24 13:30:44;;;;;;;10.60;8.88;;;11.80;1.00;;;;;;5074475;28;19946;-66
2023/01/24 13:33:17;;;;;;;10.43;7.47;;;11.90;1.00;;;;;;5066474;28;20563;-66
2023/01/24 13:35:51;;;;;;;12.73;8.63;;;11.90;1.00;;;;;;5062517;28;20382;-66
2023/01/24 13:38:26;;;;;;;12.80;9.05;;;12.00;1.00;;;;;;5074046;28;20024;-66
2023/01/24 13:41:31;;;;;;;10.85;7.85;;;12.00;1.00;;;;;;5074167;28;20101;-66
2023/01/24 13:43:59;;;;;;;14.82;9.07;;;11.90;1.00;;;;;;5058936;28;20041;-66
2023/01/24 13:46:46;;;;;;;11.77;9.13;;;12.00;1.00;;;;;;5073848;28;20064;-66
2023/01/24 13:49:49;;;;;;;12.57;9.15;;;12.10;1.00;;;;;;5062127;28;20040;-66
2023/01/24 13:52:36;;;;;;;11.23;9.25;;;12.00;1.00;;;;;;5064163;28;20111;-66
2023/01/24 13:55:26;;;;;;;12.70;9.48;;;12.00;1.00;;;;;;5073495;28;20063;-66
2023/01/24 13:58:07;;;;;;;15.50;9.98;;;11.90;1.00;;;;;;5061504;28;20047;-66
2023/01/24 14:00:45;;;;;;;12.80;9.65;;;12.00;1.00;;;;;;5073387;28;20035;-66